sensor_id;sensor_type;location;lat;lon;timestamp;P1;durP1;ratioP1;P2;durP2;ratioP2
81150;SDS011;70629;-26.026;27.976;2023-07-13T00:01:45;31.58;;;19.98;;
81150;SDS011;70629;-26.026;27.976;2023-07-13T00:03:23;30.48;;;19.85;;
81150;SDS011;70629;-26.026;27.976;2023-07-13T00:04:58;28.10;;;19.75;;
81150;SDS011;70629;-26.026;27.976;2023-07-13T00:08:09;26.98;;;19.42;;
81150;SDS011;70629;-26.026;27.976;2023-07-13T00:09:46;28.15;;;21.15;;
81150;SDS011;70629;-26.026;27.976;2023-07-13T00:11:21;29.27;;;21.60;;
81150;SDS011;70629;-26.026;27.976;2023-07-13T00:12:56;26.27;;;20.13;;
81150;SDS011;70629;-26.026;27.976;2023-07-13T00:16:07;26.95;;;19.05;;
81150;SDS011;70629;-26.026;27.976;2023-07-13T00:17:43;30.77;;;21.42;;
81150;SDS011;70629;-26.026;27.976;2023-07-13T00:19:18;28.15;;;19.60;;
81150;SDS011;70629;-26.026;27.976;2023-07-13T00:20:54;29.70;;;18.85;;
81150;SDS011;70629;-26.026;27.976;2023-07-13T00:22:30;29.10;;;19.88;;
81150;SDS011;70629;-26.026;27.976;2023-07-13T00:24:06;26.13;;;19.95;;
81150;SDS011;70629;-26.026;27.976;2023-07-13T00:25:41;29.42;;;20.17;;
81150;SDS011;70629;-26.026;27.976;2023-07-13T00:27:17;29.30;;;20.73;;
81150;SDS011;70629;-26.026;27.976;2023-07-13T00:28:52;30.27;;;22.48;;
81150;SDS011;70629;-26.026;27.976;2023-07-13T00:30:27;31.23;;;21.60;;
81150;SDS011;70629;-26.026;27.976;2023-07-13T00:33:40;26.60;;;19.83;;
81150;SDS011;70629;-26.026;27.976;2023-07-13T00:35:16;26.75;;;20.05;;
81150;SDS011;70629;-26.026;27.976;2023-07-13T00:36:51;32.25;;;21.40;;
81150;SDS011;70629;-26.026;27.976;2023-07-13T00:40:00;26.20;;;18.38;;
81150;SDS011;70629;-26.026;27.976;2023-07-13T00:41:36;28.20;;;19.42;;
81150;SDS011;70629;-26.026;27.976;2023-07-13T00:43:17;29.60;;;19.27;;
81150;SDS011;70629;-26.026;27.976;2023-07-13T00:46:15;29.95;;;18.83;;
81150;SDS011;70629;-26.026;27.976;2023-07-13T00:46:58;31.08;;;19.33;;
81150;SDS011;70629;-26.026;27.976;2023-07-13T00:48:34;26.25;;;19.40;;
81150;SDS011;70629;-26.026;27.976;2023-07-13T00:50:12;26.38;;;19.73;;
81150;SDS011;70629;-26.026;27.976;2023-07-13T00:51:51;25.65;;;18.67;;
81150;SDS011;70629;-26.026;27.976;2023-07-13T00:53:32;26.92;;;18.88;;
81150;SDS011;70629;-26.026;27.976;2023-07-13T00:55:09;27.27;;;19.30;;
81150;SDS011;70629;-26.026;27.976;2023-07-13T00:56:47;29.17;;;21.90;;
81150;SDS011;70629;-26.026;27.976;2023-07-13T00:58:25;24.55;;;19.08;;
81150;SDS011;70629;-26.026;27.976;2023-07-13T01:00:03;23.95;;;18.10;;
81150;SDS011;70629;-26.026;27.976;2023-07-13T01:03:17;26.27;;;18.20;;
81150;SDS011;70629;-26.026;27.976;2023-07-13T01:04:53;24.17;;;18.90;;
81150;SDS011;70629;-26.026;27.976;2023-07-13T01:06:29;26.08;;;18.67;;
81150;SDS011;70629;-26.026;27.976;2023-07-13T01:08:04;26.90;;;18.67;;
81150;SDS011;70629;-26.026;27.976;2023-07-13T01:09:39;30.35;;;20.17;;
81150;SDS011;70629;-26.026;27.976;2023-07-13T01:11:18;27.23;;;18.75;;
81150;SDS011;70629;-26.026;27.976;2023-07-13T01:12:55;28.13;;;18.45;;
81150;SDS011;70629;-26.026;27.976;2023-07-13T01:14:30;28.38;;;18.35;;
81150;SDS011;70629;-26.026;27.976;2023-07-13T01:16:11;29.00;;;19.05;;
81150;SDS011;70629;-26.026;27.976;2023-07-13T01:17:54;28.25;;;18.48;;
81150;SDS011;70629;-26.026;27.976;2023-07-13T01:19:32;28.13;;;18.08;;
81150;SDS011;70629;-26.026;27.976;2023-07-13T01:21:13;29.13;;;18.63;;
81150;SDS011;70629;-26.026;27.976;2023-07-13T01:22:48;28.52;;;18.45;;
81150;SDS011;70629;-26.026;27.976;2023-07-13T01:24:23;28.00;;;18.90;;
81150;SDS011;70629;-26.026;27.976;2023-07-13T01:25:59;29.20;;;20.05;;
81150;SDS011;70629;-26.026;27.976;2023-07-13T01:27:35;26.00;;;19.85;;
81150;SDS011;70629;-26.026;27.976;2023-07-13T01:30:45;29.13;;;18.33;;
81150;SDS011;70629;-26.026;27.976;2023-07-13T01:32:22;28.67;;;18.67;;
81150;SDS011;70629;-26.026;27.976;2023-07-13T01:33:59;28.80;;;19.13;;
81150;SDS011;70629;-26.026;27.976;2023-07-13T01:35:34;27.48;;;18.73;;
81150;SDS011;70629;-26.026;27.976;2023-07-13T01:37:10;28.77;;;19.63;;
81150;SDS011;70629;-26.026;27.976;2023-07-13T01:38:45;26.58;;;17.83;;
81150;SDS011;70629;-26.026;27.976;2023-07-13T01:40:21;26.35;;;19.85;;
81150;SDS011;70629;-26.026;27.976;2023-07-13T01:41:56;25.58;;;18.95;;
81150;SDS011;70629;-26.026;27.976;2023-07-13T01:43:31;31.65;;;18.13;;
81150;SDS011;70629;-26.026;27.976;2023-07-13T01:45:06;26.00;;;18.13;;
81150;SDS011;70629;-26.026;27.976;2023-07-13T01:46:41;23.00;;;17.70;;
81150;SDS011;70629;-26.026;27.976;2023-07-13T01:49:51;23.67;;;16.35;;
81150;SDS011;70629;-26.026;27.976;2023-07-13T01:53:00;22.08;;;16.42;;
81150;SDS011;70629;-26.026;27.976;2023-07-13T01:54:35;22.80;;;15.60;;
81150;SDS011;70629;-26.026;27.976;2023-07-13T01:57:45;26.00;;;15.82;;
81150;SDS011;70629;-26.026;27.976;2023-07-13T01:59:21;24.08;;;18.52;;
81150;SDS011;70629;-26.026;27.976;2023-07-13T02:00:55;20.45;;;16.48;;
81150;SDS011;70629;-26.026;27.976;2023-07-13T02:02:30;24.52;;;18.50;;
81150;SDS011;70629;-26.026;27.976;2023-07-13T02:04:06;23.40;;;17.83;;
81150;SDS011;70629;-26.026;27.976;2023-07-13T02:05:41;25.90;;;19.20;;
81150;SDS011;70629;-26.026;27.976;2023-07-13T02:07:16;25.42;;;19.75;;
81150;SDS011;70629;-26.026;27.976;2023-07-13T02:10:25;24.55;;;19.05;;
81150;SDS011;70629;-26.026;27.976;2023-07-13T02:12:00;22.42;;;18.52;;
81150;SDS011;70629;-26.026;27.976;2023-07-13T02:13:35;24.33;;;19.77;;
81150;SDS011;70629;-26.026;27.976;2023-07-13T02:16:45;29.73;;;19.55;;
81150;SDS011;70629;-26.026;27.976;2023-07-13T02:18:22;26.58;;;20.38;;
81150;SDS011;70629;-26.026;27.976;2023-07-13T02:19:57;23.88;;;19.30;;
81150;SDS011;70629;-26.026;27.976;2023-07-13T02:21:32;29.00;;;21.33;;
81150;SDS011;70629;-26.026;27.976;2023-07-13T02:23:07;29.15;;;21.33;;
81150;SDS011;70629;-26.026;27.976;2023-07-13T02:26:17;25.98;;;20.58;;
81150;SDS011;70629;-26.026;27.976;2023-07-13T02:27:52;24.15;;;17.75;;
81150;SDS011;70629;-26.026;27.976;2023-07-13T02:31:09;24.77;;;17.52;;
81150;SDS011;70629;-26.026;27.976;2023-07-13T02:32:45;25.77;;;19.45;;
81150;SDS011;70629;-26.026;27.976;2023-07-13T02:35:55;24.30;;;18.83;;
81150;SDS011;70629;-26.026;27.976;2023-07-13T02:39:05;21.40;;;15.95;;
81150;SDS011;70629;-26.026;27.976;2023-07-13T02:40:40;22.17;;;17.80;;
81150;SDS011;70629;-26.026;27.976;2023-07-13T02:43:49;23.52;;;18.48;;
81150;SDS011;70629;-26.026;27.976;2023-07-13T02:45:24;27.45;;;19.05;;
81150;SDS011;70629;-26.026;27.976;2023-07-13T02:46:59;27.05;;;18.63;;
81150;SDS011;70629;-26.026;27.976;2023-07-13T02:48:35;26.40;;;19.33;;
81150;SDS011;70629;-26.026;27.976;2023-07-13T02:50:11;22.58;;;17.52;;
81150;SDS011;70629;-26.026;27.976;2023-07-13T02:51:46;30.05;;;18.15;;
81150;SDS011;70629;-26.026;27.976;2023-07-13T02:53:21;25.10;;;18.20;;
81150;SDS011;70629;-26.026;27.976;2023-07-13T02:54:56;24.50;;;16.92;;
81150;SDS011;70629;-26.026;27.976;2023-07-13T02:56:31;22.73;;;17.23;;
81150;SDS011;70629;-26.026;27.976;2023-07-13T02:58:07;22.60;;;16.92;;
81150;SDS011;70629;-26.026;27.976;2023-07-13T02:59:42;22.55;;;16.38;;
81150;SDS011;70629;-26.026;27.976;2023-07-13T03:02:53;21.73;;;15.35;;
81150;SDS011;70629;-26.026;27.976;2023-07-13T03:04:30;21.27;;;15.68;;
81150;SDS011;70629;-26.026;27.976;2023-07-13T03:07:42;19.52;;;13.85;;
81150;SDS011;70629;-26.026;27.976;2023-07-13T03:09:17;24.05;;;16.30;;
81150;SDS011;70629;-26.026;27.976;2023-07-13T03:12:34;19.08;;;14.95;;
81150;SDS011;70629;-26.026;27.976;2023-07-13T03:14:08;18.67;;;15.23;;
81150;SDS011;70629;-26.026;27.976;2023-07-13T03:15:44;19.27;;;14.52;;
81150;SDS011;70629;-26.026;27.976;2023-07-13T03:17:23;22.70;;;16.35;;
81150;SDS011;70629;-26.026;27.976;2023-07-13T03:18:58;20.45;;;15.07;;
81150;SDS011;70629;-26.026;27.976;2023-07-13T03:22:08;20.63;;;13.63;;
81150;SDS011;70629;-26.026;27.976;2023-07-13T03:23:43;19.73;;;14.68;;
81150;SDS011;70629;-26.026;27.976;2023-07-13T03:26:53;18.98;;;12.88;;
81150;SDS011;70629;-26.026;27.976;2023-07-13T03:28:28;28.52;;;15.35;;
81150;SDS011;70629;-26.026;27.976;2023-07-13T03:31:38;16.92;;;13.57;;
81150;SDS011;70629;-26.026;27.976;2023-07-13T03:33:14;19.23;;;14.60;;
81150;SDS011;70629;-26.026;27.976;2023-07-13T03:34:49;22.65;;;15.32;;
81150;SDS011;70629;-26.026;27.976;2023-07-13T03:36:25;19.40;;;14.32;;
81150;SDS011;70629;-26.026;27.976;2023-07-13T03:38:02;19.92;;;14.52;;
81150;SDS011;70629;-26.026;27.976;2023-07-13T03:39:37;18.58;;;13.98;;
81150;SDS011;70629;-26.026;27.976;2023-07-13T03:41:12;25.25;;;16.05;;
81150;SDS011;70629;-26.026;27.976;2023-07-13T03:42:47;21.27;;;15.43;;
81150;SDS011;70629;-26.026;27.976;2023-07-13T03:44:22;18.67;;;14.80;;
81150;SDS011;70629;-26.026;27.976;2023-07-13T03:45:57;17.65;;;13.63;;
81150;SDS011;70629;-26.026;27.976;2023-07-13T03:49:06;22.02;;;13.18;;
81150;SDS011;70629;-26.026;27.976;2023-07-13T03:50:41;18.90;;;13.65;;
81150;SDS011;70629;-26.026;27.976;2023-07-13T03:53:50;21.75;;;14.07;;
81150;SDS011;70629;-26.026;27.976;2023-07-13T03:55:26;22.20;;;15.98;;
81150;SDS011;70629;-26.026;27.976;2023-07-13T03:58:36;23.48;;;15.00;;
81150;SDS011;70629;-26.026;27.976;2023-07-13T04:00:13;25.40;;;17.75;;
81150;SDS011;70629;-26.026;27.976;2023-07-13T04:01:48;25.15;;;16.58;;
81150;SDS011;70629;-26.026;27.976;2023-07-13T04:04:58;20.95;;;15.55;;
81150;SDS011;70629;-26.026;27.976;2023-07-13T04:06:33;22.70;;;17.08;;
81150;SDS011;70629;-26.026;27.976;2023-07-13T04:08:08;26.20;;;17.73;;
81150;SDS011;70629;-26.026;27.976;2023-07-13T04:09:43;22.05;;;15.68;;
81150;SDS011;70629;-26.026;27.976;2023-07-13T04:11:18;25.27;;;17.25;;
81150;SDS011;70629;-26.026;27.976;2023-07-13T04:12:54;23.15;;;16.30;;
81150;SDS011;70629;-26.026;27.976;2023-07-13T04:16:03;22.40;;;15.25;;
81150;SDS011;70629;-26.026;27.976;2023-07-13T04:19:13;20.17;;;14.80;;
81150;SDS011;70629;-26.026;27.976;2023-07-13T04:22:23;22.13;;;13.93;;
81150;SDS011;70629;-26.026;27.976;2023-07-13T04:25:32;19.98;;;13.98;;
81150;SDS011;70629;-26.026;27.976;2023-07-13T04:27:07;23.23;;;15.07;;
81150;SDS011;70629;-26.026;27.976;2023-07-13T04:28:42;25.52;;;15.50;;
81150;SDS011;70629;-26.026;27.976;2023-07-13T04:30:17;21.17;;;14.65;;
81150;SDS011;70629;-26.026;27.976;2023-07-13T04:31:52;22.52;;;15.68;;
81150;SDS011;70629;-26.026;27.976;2023-07-13T04:33:27;28.73;;;15.07;;
81150;SDS011;70629;-26.026;27.976;2023-07-13T04:36:37;23.55;;;15.10;;
81150;SDS011;70629;-26.026;27.976;2023-07-13T04:39:46;23.60;;;13.73;;
81150;SDS011;70629;-26.026;27.976;2023-07-13T04:41:21;26.35;;;15.93;;
81150;SDS011;70629;-26.026;27.976;2023-07-13T04:42:56;25.83;;;15.05;;
81150;SDS011;70629;-26.026;27.976;2023-07-13T04:44:31;20.40;;;14.55;;
81150;SDS011;70629;-26.026;27.976;2023-07-13T04:46:07;24.40;;;16.23;;
81150;SDS011;70629;-26.026;27.976;2023-07-13T04:47:45;24.58;;;16.65;;
81150;SDS011;70629;-26.026;27.976;2023-07-13T04:50:56;20.30;;;14.48;;
81150;SDS011;70629;-26.026;27.976;2023-07-13T04:52:32;25.05;;;14.73;;
81150;SDS011;70629;-26.026;27.976;2023-07-13T04:54:07;23.02;;;15.88;;
81150;SDS011;70629;-26.026;27.976;2023-07-13T04:55:43;24.10;;;15.50;;
81150;SDS011;70629;-26.026;27.976;2023-07-13T04:57:18;23.70;;;15.23;;
81150;SDS011;70629;-26.026;27.976;2023-07-13T04:58:53;25.30;;;16.60;;
81150;SDS011;70629;-26.026;27.976;2023-07-13T05:00:28;27.80;;;15.98;;
81150;SDS011;70629;-26.026;27.976;2023-07-13T05:02:04;23.70;;;16.10;;
81150;SDS011;70629;-26.026;27.976;2023-07-13T05:03:39;24.60;;;17.13;;
81150;SDS011;70629;-26.026;27.976;2023-07-13T05:06:49;28.23;;;16.52;;
81150;SDS011;70629;-26.026;27.976;2023-07-13T05:08:24;22.83;;;15.27;;
81150;SDS011;70629;-26.026;27.976;2023-07-13T05:09:59;27.38;;;16.52;;
81150;SDS011;70629;-26.026;27.976;2023-07-13T05:11:34;28.23;;;16.38;;
81150;SDS011;70629;-26.026;27.976;2023-07-13T05:13:09;26.40;;;17.15;;
81150;SDS011;70629;-26.026;27.976;2023-07-13T05:14:44;25.77;;;17.27;;
81150;SDS011;70629;-26.026;27.976;2023-07-13T05:16:19;28.67;;;18.08;;
81150;SDS011;70629;-26.026;27.976;2023-07-13T05:17:54;24.30;;;18.00;;
81150;SDS011;70629;-26.026;27.976;2023-07-13T05:19:29;34.35;;;17.60;;
81150;SDS011;70629;-26.026;27.976;2023-07-13T05:22:41;20.67;;;16.67;;
81150;SDS011;70629;-26.026;27.976;2023-07-13T05:24:17;26.38;;;17.33;;
81150;SDS011;70629;-26.026;27.976;2023-07-13T05:25:58;29.88;;;16.58;;
81150;SDS011;70629;-26.026;27.976;2023-07-13T05:27:34;25.55;;;14.68;;
81150;SDS011;70629;-26.026;27.976;2023-07-13T05:29:09;25.77;;;16.42;;
81150;SDS011;70629;-26.026;27.976;2023-07-13T05:30:45;27.40;;;17.98;;
81150;SDS011;70629;-26.026;27.976;2023-07-13T05:32:21;25.75;;;17.83;;
81150;SDS011;70629;-26.026;27.976;2023-07-13T05:35:30;17.80;;;15.13;;
81150;SDS011;70629;-26.026;27.976;2023-07-13T05:37:05;22.00;;;15.88;;
81150;SDS011;70629;-26.026;27.976;2023-07-13T05:38:40;22.63;;;16.63;;
81150;SDS011;70629;-26.026;27.976;2023-07-13T05:40:15;25.30;;;17.48;;
81150;SDS011;70629;-26.026;27.976;2023-07-13T05:43:24;23.23;;;16.13;;
81150;SDS011;70629;-26.026;27.976;2023-07-13T05:46:34;24.75;;;17.38;;
81150;SDS011;70629;-26.026;27.976;2023-07-13T05:48:09;26.13;;;17.38;;
81150;SDS011;70629;-26.026;27.976;2023-07-13T05:51:18;24.58;;;16.73;;
81150;SDS011;70629;-26.026;27.976;2023-07-13T05:52:53;23.67;;;16.95;;
81150;SDS011;70629;-26.026;27.976;2023-07-13T05:54:28;26.92;;;17.98;;
81150;SDS011;70629;-26.026;27.976;2023-07-13T05:56:04;21.70;;;18.38;;
81150;SDS011;70629;-26.026;27.976;2023-07-13T05:59:13;26.95;;;17.40;;
81150;SDS011;70629;-26.026;27.976;2023-07-13T06:00:48;27.73;;;18.20;;
81150;SDS011;70629;-26.026;27.976;2023-07-13T06:02:32;24.85;;;16.67;;
81150;SDS011;70629;-26.026;27.976;2023-07-13T06:04:07;25.02;;;17.65;;
81150;SDS011;70629;-26.026;27.976;2023-07-13T06:05:42;30.52;;;18.75;;
81150;SDS011;70629;-26.026;27.976;2023-07-13T06:07:17;27.50;;;18.13;;
81150;SDS011;70629;-26.026;27.976;2023-07-13T06:08:52;24.40;;;18.00;;
81150;SDS011;70629;-26.026;27.976;2023-07-13T06:10:27;22.25;;;16.60;;
81150;SDS011;70629;-26.026;27.976;2023-07-13T06:13:37;22.15;;;15.85;;
81150;SDS011;70629;-26.026;27.976;2023-07-13T06:16:49;18.77;;;15.90;;
81150;SDS011;70629;-26.026;27.976;2023-07-13T06:18:25;19.70;;;15.40;;
81150;SDS011;70629;-26.026;27.976;2023-07-13T06:20:00;23.05;;;17.55;;
81150;SDS011;70629;-26.026;27.976;2023-07-13T06:21:35;23.63;;;16.83;;
81150;SDS011;70629;-26.026;27.976;2023-07-13T06:23:10;25.77;;;16.40;;
81150;SDS011;70629;-26.026;27.976;2023-07-13T06:24:45;26.08;;;18.52;;
81150;SDS011;70629;-26.026;27.976;2023-07-13T06:26:20;27.45;;;17.27;;
81150;SDS011;70629;-26.026;27.976;2023-07-13T06:27:55;28.67;;;19.58;;
81150;SDS011;70629;-26.026;27.976;2023-07-13T06:29:30;28.92;;;20.15;;
81150;SDS011;70629;-26.026;27.976;2023-07-13T06:32:45;22.40;;;16.40;;
81150;SDS011;70629;-26.026;27.976;2023-07-13T06:34:19;26.70;;;18.67;;
81150;SDS011;70629;-26.026;27.976;2023-07-13T06:35:54;25.67;;;18.08;;
81150;SDS011;70629;-26.026;27.976;2023-07-13T06:39:04;22.80;;;16.95;;
81150;SDS011;70629;-26.026;27.976;2023-07-13T06:40:40;25.33;;;17.70;;
81150;SDS011;70629;-26.026;27.976;2023-07-13T06:42:16;21.02;;;17.15;;
81150;SDS011;70629;-26.026;27.976;2023-07-13T06:43:51;24.48;;;17.90;;
81150;SDS011;70629;-26.026;27.976;2023-07-13T06:45:27;24.48;;;19.08;;
81150;SDS011;70629;-26.026;27.976;2023-07-13T06:47:02;22.58;;;16.92;;
81150;SDS011;70629;-26.026;27.976;2023-07-13T06:48:38;29.00;;;19.38;;
81150;SDS011;70629;-26.026;27.976;2023-07-13T06:50:15;32.38;;;19.45;;
81150;SDS011;70629;-26.026;27.976;2023-07-13T06:51:50;26.27;;;19.88;;
81150;SDS011;70629;-26.026;27.976;2023-07-13T06:53:25;30.45;;;19.83;;
81150;SDS011;70629;-26.026;27.976;2023-07-13T06:55:00;25.55;;;18.15;;
81150;SDS011;70629;-26.026;27.976;2023-07-13T06:56:35;25.05;;;17.70;;
81150;SDS011;70629;-26.026;27.976;2023-07-13T06:59:45;22.38;;;16.00;;
81150;SDS011;70629;-26.026;27.976;2023-07-13T07:01:20;22.35;;;17.13;;
81150;SDS011;70629;-26.026;27.976;2023-07-13T07:02:55;25.90;;;19.58;;
81150;SDS011;70629;-26.026;27.976;2023-07-13T07:04:30;27.15;;;20.55;;
81150;SDS011;70629;-26.026;27.976;2023-07-13T07:07:51;27.52;;;17.63;;
81150;SDS011;70629;-26.026;27.976;2023-07-13T07:09:28;29.15;;;18.77;;
81150;SDS011;70629;-26.026;27.976;2023-07-13T07:11:05;21.80;;;17.08;;
81150;SDS011;70629;-26.026;27.976;2023-07-13T07:12:42;20.10;;;15.95;;
81150;SDS011;70629;-26.026;27.976;2023-07-13T07:14:17;20.65;;;14.38;;
81150;SDS011;70629;-26.026;27.976;2023-07-13T07:15:52;20.08;;;13.52;;
81150;SDS011;70629;-26.026;27.976;2023-07-13T07:17:27;16.65;;;11.48;;
81150;SDS011;70629;-26.026;27.976;2023-07-13T07:19:03;11.73;;;7.35;;
81150;SDS011;70629;-26.026;27.976;2023-07-13T07:22:12;7.10;;;4.47;;
81150;SDS011;70629;-26.026;27.976;2023-07-13T07:23:47;6.20;;;3.95;;
81150;SDS011;70629;-26.026;27.976;2023-07-13T07:25:23;7.95;;;4.32;;
81150;SDS011;70629;-26.026;27.976;2023-07-13T07:26:58;8.13;;;4.40;;
81150;SDS011;70629;-26.026;27.976;2023-07-13T07:28:35;9.57;;;4.75;;
81150;SDS011;70629;-26.026;27.976;2023-07-13T07:30:15;8.82;;;5.63;;
81150;SDS011;70629;-26.026;27.976;2023-07-13T07:31:52;9.18;;;6.30;;
81150;SDS011;70629;-26.026;27.976;2023-07-13T07:33:32;9.43;;;6.25;;
81150;SDS011;70629;-26.026;27.976;2023-07-13T07:35:08;10.80;;;7.85;;
81150;SDS011;70629;-26.026;27.976;2023-07-13T07:36:43;10.02;;;7.30;;
81150;SDS011;70629;-26.026;27.976;2023-07-13T07:38:21;10.05;;;7.05;;
81150;SDS011;70629;-26.026;27.976;2023-07-13T07:39:57;10.30;;;7.38;;
81150;SDS011;70629;-26.026;27.976;2023-07-13T07:41:35;10.75;;;7.40;;
81150;SDS011;70629;-26.026;27.976;2023-07-13T07:43:13;11.48;;;8.82;;
81150;SDS011;70629;-26.026;27.976;2023-07-13T07:46:23;11.43;;;8.10;;
81150;SDS011;70629;-26.026;27.976;2023-07-13T07:47:58;11.25;;;8.68;;
81150;SDS011;70629;-26.026;27.976;2023-07-13T07:49:34;12.45;;;8.38;;
81150;SDS011;70629;-26.026;27.976;2023-07-13T07:51:10;8.88;;;6.68;;
81150;SDS011;70629;-26.026;27.976;2023-07-13T07:54:19;9.50;;;5.30;;
81150;SDS011;70629;-26.026;27.976;2023-07-13T07:56:14;9.40;;;5.40;;
81150;SDS011;70629;-26.026;27.976;2023-07-13T07:57:53;11.98;;;5.57;;
81150;SDS011;70629;-26.026;27.976;2023-07-13T07:59:31;8.52;;;5.03;;
81150;SDS011;70629;-26.026;27.976;2023-07-13T08:01:09;7.10;;;4.90;;
81150;SDS011;70629;-26.026;27.976;2023-07-13T08:02:47;8.07;;;5.65;;
81150;SDS011;70629;-26.026;27.976;2023-07-13T08:04:25;6.57;;;5.05;;
81150;SDS011;70629;-26.026;27.976;2023-07-13T08:06:02;8.13;;;5.63;;
81150;SDS011;70629;-26.026;27.976;2023-07-13T08:07:40;9.27;;;5.60;;
81150;SDS011;70629;-26.026;27.976;2023-07-13T08:09:16;11.13;;;7.28;;
81150;SDS011;70629;-26.026;27.976;2023-07-13T08:10:51;8.73;;;6.85;;
81150;SDS011;70629;-26.026;27.976;2023-07-13T08:12:35;9.45;;;6.22;;
81150;SDS011;70629;-26.026;27.976;2023-07-13T08:14:17;11.40;;;6.72;;
81150;SDS011;70629;-26.026;27.976;2023-07-13T08:15:52;11.48;;;6.72;;
81150;SDS011;70629;-26.026;27.976;2023-07-13T08:17:27;9.48;;;6.65;;
81150;SDS011;70629;-26.026;27.976;2023-07-13T08:19:02;8.85;;;5.93;;
81150;SDS011;70629;-26.026;27.976;2023-07-13T08:20:38;9.20;;;6.05;;
81150;SDS011;70629;-26.026;27.976;2023-07-13T08:22:13;12.65;;;6.55;;
81150;SDS011;70629;-26.026;27.976;2023-07-13T08:23:49;9.15;;;6.82;;
81150;SDS011;70629;-26.026;27.976;2023-07-13T08:25:24;10.85;;;6.30;;
81150;SDS011;70629;-26.026;27.976;2023-07-13T08:26:59;9.32;;;6.63;;
81150;SDS011;70629;-26.026;27.976;2023-07-13T08:28:35;10.20;;;6.70;;
81150;SDS011;70629;-26.026;27.976;2023-07-13T08:30:10;10.02;;;6.50;;
81150;SDS011;70629;-26.026;27.976;2023-07-13T08:31:45;7.00;;;5.78;;
81150;SDS011;70629;-26.026;27.976;2023-07-13T08:33:21;12.88;;;7.18;;
81150;SDS011;70629;-26.026;27.976;2023-07-13T08:34:59;8.45;;;6.95;;
81150;SDS011;70629;-26.026;27.976;2023-07-13T08:36:34;12.35;;;7.90;;
81150;SDS011;70629;-26.026;27.976;2023-07-13T08:39:43;16.48;;;7.90;;
81150;SDS011;70629;-26.026;27.976;2023-07-13T08:42:59;10.65;;;7.22;;
81150;SDS011;70629;-26.026;27.976;2023-07-13T08:44:40;10.40;;;7.82;;
81150;SDS011;70629;-26.026;27.976;2023-07-13T08:46:46;10.85;;;7.03;;
81150;SDS011;70629;-26.026;27.976;2023-07-13T08:48:25;11.32;;;7.00;;
81150;SDS011;70629;-26.026;27.976;2023-07-13T08:50:03;10.38;;;6.95;;
81150;SDS011;70629;-26.026;27.976;2023-07-13T08:51:43;14.10;;;7.47;;
81150;SDS011;70629;-26.026;27.976;2023-07-13T08:53:23;13.00;;;7.90;;
81150;SDS011;70629;-26.026;27.976;2023-07-13T08:55:06;10.02;;;7.22;;
81150;SDS011;70629;-26.026;27.976;2023-07-13T08:56:56;10.65;;;7.13;;
81150;SDS011;70629;-26.026;27.976;2023-07-13T08:58:33;9.57;;;7.45;;
81150;SDS011;70629;-26.026;27.976;2023-07-13T09:00:09;11.07;;;7.25;;
81150;SDS011;70629;-26.026;27.976;2023-07-13T09:01:51;9.90;;;8.00;;
81150;SDS011;70629;-26.026;27.976;2023-07-13T09:04:05;10.68;;;7.13;;
81150;SDS011;70629;-26.026;27.976;2023-07-13T09:05:49;11.43;;;7.03;;
81150;SDS011;70629;-26.026;27.976;2023-07-13T09:07:39;10.52;;;7.03;;
81150;SDS011;70629;-26.026;27.976;2023-07-13T09:17:13;9.77;;;6.38;;
81150;SDS011;70629;-26.026;27.976;2023-07-13T09:18:52;19.38;;;7.82;;
81150;SDS011;70629;-26.026;27.976;2023-07-13T09:20:42;9.32;;;7.05;;
81150;SDS011;70629;-26.026;27.976;2023-07-13T09:22:25;11.20;;;7.28;;
81150;SDS011;70629;-26.026;27.976;2023-07-13T09:24:20;10.55;;;7.50;;
81150;SDS011;70629;-26.026;27.976;2023-07-13T09:27:52;10.05;;;7.28;;
81150;SDS011;70629;-26.026;27.976;2023-07-13T09:29:34;11.38;;;7.68;;
81150;SDS011;70629;-26.026;27.976;2023-07-13T09:31:26;10.27;;;7.53;;
81150;SDS011;70629;-26.026;27.976;2023-07-13T09:33:08;13.98;;;7.38;;
81150;SDS011;70629;-26.026;27.976;2023-07-13T09:34:43;9.93;;;7.72;;
81150;SDS011;70629;-26.026;27.976;2023-07-13T09:36:29;10.50;;;7.53;;
81150;SDS011;70629;-26.026;27.976;2023-07-13T09:38:13;10.68;;;7.47;;
81150;SDS011;70629;-26.026;27.976;2023-07-13T09:39:50;11.18;;;7.78;;
81150;SDS011;70629;-26.026;27.976;2023-07-13T09:41:31;9.90;;;8.00;;
81150;SDS011;70629;-26.026;27.976;2023-07-13T09:43:10;9.55;;;7.57;;
81150;SDS011;70629;-26.026;27.976;2023-07-13T09:46:31;11.88;;;7.72;;
81150;SDS011;70629;-26.026;27.976;2023-07-13T09:48:10;11.48;;;7.55;;
81150;SDS011;70629;-26.026;27.976;2023-07-13T09:49:47;8.82;;;6.85;;
81150;SDS011;70629;-26.026;27.976;2023-07-13T09:51:27;12.10;;;7.15;;
81150;SDS011;70629;-26.026;27.976;2023-07-13T09:53:02;12.55;;;7.53;;
81150;SDS011;70629;-26.026;27.976;2023-07-13T09:54:37;12.10;;;8.13;;
81150;SDS011;70629;-26.026;27.976;2023-07-13T09:56:19;11.15;;;7.63;;
81150;SDS011;70629;-26.026;27.976;2023-07-13T09:58:13;13.70;;;9.07;;
81150;SDS011;70629;-26.026;27.976;2023-07-13T09:59:50;13.48;;;8.85;;
81150;SDS011;70629;-26.026;27.976;2023-07-13T10:01:31;13.77;;;8.95;;
81150;SDS011;70629;-26.026;27.976;2023-07-13T10:04:57;12.88;;;8.70;;
81150;SDS011;70629;-26.026;27.976;2023-07-13T10:06:38;15.13;;;10.23;;
81150;SDS011;70629;-26.026;27.976;2023-07-13T10:08:19;14.95;;;10.00;;
81150;SDS011;70629;-26.026;27.976;2023-07-13T10:10:01;22.13;;;8.93;;
81150;SDS011;70629;-26.026;27.976;2023-07-13T10:11:37;12.48;;;9.75;;
81150;SDS011;70629;-26.026;27.976;2023-07-13T10:13:25;11.20;;;8.68;;
81150;SDS011;70629;-26.026;27.976;2023-07-13T10:15:15;13.63;;;10.07;;
81150;SDS011;70629;-26.026;27.976;2023-07-13T10:17:00;13.98;;;10.38;;
81150;SDS011;70629;-26.026;27.976;2023-07-13T10:18:46;15.57;;;9.93;;
81150;SDS011;70629;-26.026;27.976;2023-07-13T10:20:25;15.38;;;11.10;;
81150;SDS011;70629;-26.026;27.976;2023-07-13T10:24:20;12.43;;;9.60;;
81150;SDS011;70629;-26.026;27.976;2023-07-13T10:25:56;16.73;;;10.00;;
81150;SDS011;70629;-26.026;27.976;2023-07-13T10:27:34;18.10;;;10.88;;
81150;SDS011;70629;-26.026;27.976;2023-07-13T10:29:11;19.17;;;11.32;;
81150;SDS011;70629;-26.026;27.976;2023-07-13T10:30:48;20.65;;;11.48;;
81150;SDS011;70629;-26.026;27.976;2023-07-13T10:32:26;20.15;;;11.70;;
81150;SDS011;70629;-26.026;27.976;2023-07-13T10:34:01;17.77;;;11.30;;
81150;SDS011;70629;-26.026;27.976;2023-07-13T10:35:36;17.17;;;11.07;;
81150;SDS011;70629;-26.026;27.976;2023-07-13T10:37:17;19.25;;;11.35;;
81150;SDS011;70629;-26.026;27.976;2023-07-13T10:40:40;17.25;;;11.07;;
81150;SDS011;70629;-26.026;27.976;2023-07-13T10:42:35;16.95;;;11.68;;
81150;SDS011;70629;-26.026;27.976;2023-07-13T10:46:00;19.02;;;10.63;;
81150;SDS011;70629;-26.026;27.976;2023-07-13T10:47:38;18.00;;;12.93;;
81150;SDS011;70629;-26.026;27.976;2023-07-13T10:49:13;18.48;;;10.73;;
81150;SDS011;70629;-26.026;27.976;2023-07-13T10:50:51;16.88;;;10.48;;
81150;SDS011;70629;-26.026;27.976;2023-07-13T10:52:48;15.88;;;10.52;;
81150;SDS011;70629;-26.026;27.976;2023-07-13T10:57:46;20.60;;;11.75;;
81150;SDS011;70629;-26.026;27.976;2023-07-13T10:59:25;22.50;;;12.73;;